createdAt,value
2023-02-11T00:00:28.538Z,-1.93
2023-02-11T00:02:54.985Z,-2.15
2023-02-11T00:05:21.453Z,-2.27
2023-02-11T00:07:47.892Z,-2.09
2023-02-11T00:10:14.450Z,-2.04
2023-02-11T00:12:40.943Z,-2.20
2023-02-11T00:15:08.093Z,-2.25
2023-02-11T00:17:34.553Z,-2.27
2023-02-11T00:20:01.016Z,-2.29
2023-02-11T00:22:28.726Z,-2.31
2023-02-11T00:24:57.111Z,-2.32
2023-02-11T00:27:24.748Z,-2.13
2023-02-11T00:29:51.274Z,-2.16
2023-02-11T00:32:19.092Z,-2.25
2023-02-11T00:34:45.556Z,-2.28
2023-02-11T00:37:13.779Z,-2.27
2023-02-11T00:39:40.351Z,-2.29
2023-02-11T00:42:06.856Z,-2.28
2023-02-11T00:44:33.407Z,-2.22
2023-02-11T00:46:59.881Z,-2.07
2023-02-11T00:49:26.418Z,-2.19
2023-02-11T00:51:52.861Z,-2.24
2023-02-11T00:54:20.659Z,-2.27
2023-02-11T00:56:48.478Z,-2.27
2023-02-11T00:59:15.478Z,-2.26
2023-02-11T01:01:42.042Z,-2.18
2023-02-11T01:04:08.524Z,-2.08
2023-02-11T01:06:34.986Z,-2.19
2023-02-11T01:09:01.467Z,-2.23
2023-02-11T01:11:27.994Z,-2.24
2023-02-11T01:13:54.497Z,-2.27
2023-02-11T01:16:21.844Z,-2.20
2023-02-11T01:18:48.745Z,-2.00
2023-02-11T01:21:16.603Z,-2.08
2023-02-11T01:23:43.107Z,-2.12
2023-02-11T01:26:09.629Z,-2.11
2023-02-11T01:28:36.243Z,-2.12
2023-02-11T01:31:03.414Z,-2.09
2023-02-11T01:33:30.163Z,-1.91
2023-02-11T01:36:00.459Z,-1.94
2023-02-11T01:38:26.915Z,-1.99
2023-02-11T01:40:57.426Z,-2.03
2023-02-11T01:43:25.280Z,-2.03
2023-02-11T01:45:57.704Z,-2.03
2023-02-11T01:48:30.453Z,-1.94
2023-02-11T01:51:00.746Z,-1.84
2023-02-11T01:53:47.960Z,-1.98
2023-02-11T01:56:33.830Z,-2.01
2023-02-11T01:59:05.370Z,-1.99
2023-02-11T02:01:33.803Z,-1.97
2023-02-11T02:04:02.889Z,-1.98
2023-02-11T02:06:48.067Z,-1.77
2023-02-11T02:09:22.987Z,-1.86
2023-02-11T02:11:50.247Z,-1.91
2023-02-11T02:14:18.057Z,-1.92
2023-02-11T02:16:44.810Z,-1.91
2023-02-11T02:19:31.235Z,-1.92
2023-02-11T02:22:27.082Z,-1.82
2023-02-11T02:25:23.693Z,-1.71
2023-02-11T02:27:56.207Z,-1.88
2023-02-11T02:30:34.895Z,-1.90
2023-02-11T02:33:22.354Z,-1.87
2023-02-11T02:35:49.548Z,-1.88
2023-02-11T02:38:19.128Z,-1.84
2023-02-11T02:41:06.249Z,-1.70
2023-02-11T02:43:33.537Z,-1.80
2023-02-11T02:46:10.821Z,-1.83
2023-02-11T02:48:37.534Z,-1.86
2023-02-11T02:51:22.722Z,-1.87
2023-02-11T02:53:59.590Z,-1.73
2023-02-11T02:56:33.857Z,-1.73
2023-02-11T02:59:13.733Z,-1.81
2023-02-11T03:01:41.009Z,-1.87
2023-02-11T03:04:15.051Z,-1.87
2023-02-11T03:06:41.669Z,-1.87
2023-02-11T03:09:29.849Z,-1.92
2023-02-11T03:11:56.617Z,-1.82
2023-02-11T03:14:26.879Z,-1.82
2023-02-11T03:16:54.837Z,-1.92
2023-02-11T03:19:25.134Z,-1.96
2023-02-11T03:21:53.297Z,-1.96
2023-02-11T03:24:31.089Z,-2.00
2023-02-11T03:26:59.099Z,-2.05
2023-02-11T03:29:32.133Z,-2.05
2023-02-11T03:31:58.800Z,-1.92
2023-02-11T03:34:35.972Z,-2.05
2023-02-11T03:37:07.859Z,-2.12
2023-02-11T03:39:36.954Z,-2.21
2023-02-11T03:42:05.924Z,-2.29
2023-02-11T03:44:36.345Z,-2.32
2023-02-11T03:47:03.870Z,-2.34
2023-02-11T03:49:32.353Z,-2.36
2023-02-11T03:52:01.383Z,-2.37
2023-02-11T03:54:29.762Z,-2.36
2023-02-11T03:56:59.582Z,-2.35
2023-02-11T03:59:28.048Z,-2.32
2023-02-11T04:01:54.909Z,-2.44
2023-02-11T04:04:21.751Z,-2.46
2023-02-11T04:06:48.261Z,-2.53
2023-02-11T04:09:15.292Z,-2.54
2023-02-11T04:11:41.800Z,-2.58
2023-02-11T04:14:08.281Z,-2.58
2023-02-11T04:16:34.850Z,-2.59
2023-02-11T04:19:01.757Z,-2.61
2023-02-11T04:21:28.294Z,-2.61
2023-02-11T04:23:54.771Z,-2.65
2023-02-11T04:26:22.498Z,-2.66
2023-02-11T04:28:49.016Z,-2.70
2023-02-11T04:31:15.590Z,-2.69
2023-02-11T04:33:42.171Z,-2.70
2023-02-11T04:36:08.687Z,-2.66
2023-02-11T04:38:35.128Z,-2.64
2023-02-11T04:41:01.799Z,-2.64
2023-02-11T04:43:28.301Z,-2.64
2023-02-11T04:45:58.807Z,-2.81
2023-02-11T04:48:25.922Z,-3.03
2023-02-11T04:50:52.542Z,-3.07
2023-02-11T04:53:20.179Z,-2.93
2023-02-11T04:55:49.864Z,-2.90
2023-02-11T04:58:16.947Z,-3.20
2023-02-11T05:00:44.525Z,-3.29
2023-02-11T05:03:11.178Z,-3.34
2023-02-11T05:05:41.305Z,-3.23
2023-02-11T05:08:08.025Z,-3.18
2023-02-11T05:10:34.609Z,-3.37
2023-02-11T05:13:01.076Z,-3.50
2023-02-11T05:15:27.673Z,-3.60
2023-02-11T05:17:54.224Z,-3.67
2023-02-11T05:20:20.800Z,-3.70
2023-02-11T05:22:47.285Z,-3.72
2023-02-11T05:25:15.159Z,-3.69
2023-02-11T05:27:41.608Z,-3.71
2023-02-11T05:30:09.749Z,-3.72
2023-02-11T05:32:36.477Z,-3.75
2023-02-11T05:35:04.122Z,-3.84
2023-02-11T05:37:30.694Z,-3.90
2023-02-11T05:39:57.177Z,-3.91
2023-02-11T05:42:23.647Z,-3.94
2023-02-11T05:44:50.748Z,-4.00
2023-02-11T05:47:18.521Z,-4.05
2023-02-11T05:49:45.018Z,-4.17
2023-02-11T05:52:11.485Z,-4.15
2023-02-11T05:54:37.990Z,-4.19
2023-02-11T05:57:04.774Z,-4.24
2023-02-11T05:59:32.347Z,-4.28
2023-02-11T06:01:58.798Z,-4.34
2023-02-11T06:04:27.252Z,-4.36
2023-02-11T06:06:53.714Z,-4.40
2023-02-11T06:09:20.227Z,-4.38
2023-02-11T06:11:46.806Z,-4.37
2023-02-11T06:14:14.433Z,-4.35
2023-02-11T06:16:41.969Z,-4.40
2023-02-11T06:19:09.726Z,-4.43
2023-02-11T06:21:43.738Z,-4.47
2023-02-11T06:24:47.723Z,-4.26
2023-02-11T06:27:07.453Z,-4.32
2023-02-11T06:29:34.059Z,-4.42
2023-02-11T06:32:02.171Z,-4.43
2023-02-11T06:34:28.755Z,-4.49
2023-02-11T06:36:55.309Z,-4.48
2023-02-11T06:39:21.941Z,-4.52
2023-02-11T06:41:48.393Z,-4.50
2023-02-11T06:44:16.301Z,-4.53
2023-02-11T06:46:42.822Z,-4.46
2023-02-11T06:49:09.417Z,-4.47
2023-02-11T06:51:35.849Z,-4.48
2023-02-11T06:54:02.432Z,-4.37
2023-02-11T06:56:29.047Z,-4.38
2023-02-11T06:58:57.540Z,-4.42
2023-02-11T07:01:24.684Z,-4.40
2023-02-11T07:03:51.776Z,-4.38
2023-02-11T07:06:20.356Z,-4.38
2023-02-11T07:08:48.267Z,-4.38
2023-02-11T07:11:20.821Z,-4.45
2023-02-11T07:13:47.684Z,-4.41
2023-02-11T07:16:16.089Z,-4.38
2023-02-11T07:18:42.594Z,-4.39
2023-02-11T07:21:10.329Z,-4.41
2023-02-11T07:23:39.728Z,-4.38
2023-02-11T07:26:10.369Z,-4.40
2023-02-11T07:28:37.676Z,-4.18
2023-02-11T07:31:11.399Z,-4.22
2023-02-11T07:33:38.169Z,-4.34
2023-02-11T07:36:05.661Z,-4.30
2023-02-11T07:38:33.134Z,-4.32
2023-02-11T07:41:00.541Z,-4.31
2023-02-11T07:43:27.340Z,-4.30
2023-02-11T07:45:53.832Z,-4.20
2023-02-11T07:48:21.514Z,-4.20
2023-02-11T07:50:48.067Z,-4.27
2023-02-11T07:53:14.634Z,-4.21
2023-02-11T07:55:42.483Z,-4.17
2023-02-11T07:58:08.966Z,-4.20
2023-02-11T08:00:35.505Z,-4.20
2023-02-11T08:03:03.273Z,-4.00
2023-02-11T08:05:30.556Z,-3.97
2023-02-11T08:07:57.074Z,-3.96
2023-02-11T08:10:23.583Z,-3.92
2023-02-11T08:12:50.143Z,-3.92
2023-02-11T08:15:16.636Z,-3.90
2023-02-11T08:17:43.117Z,-3.82
2023-02-11T08:20:09.849Z,-3.79
2023-02-11T08:22:36.845Z,-3.61
2023-02-11T08:25:04.357Z,-3.64
2023-02-11T08:27:30.821Z,-3.67
2023-02-11T08:29:59.407Z,-3.68
2023-02-11T08:32:27.386Z,-3.63
2023-02-11T08:34:55.372Z,-3.49
2023-02-11T08:37:24.050Z,-3.40
2023-02-11T08:39:52.252Z,-3.47
2023-02-11T08:42:19.915Z,-3.43
2023-02-11T08:44:46.381Z,-3.48
2023-02-11T08:47:12.867Z,-3.45
2023-02-11T08:49:41.392Z,-3.43
2023-02-11T08:52:08.584Z,-3.32
2023-02-11T08:54:36.470Z,-3.13
2023-02-11T08:57:03.059Z,-3.20
2023-02-11T08:59:30.677Z,-3.17
2023-02-11T09:01:57.266Z,-3.11
2023-02-11T09:04:23.804Z,-3.06
2023-02-11T09:06:50.386Z,-2.90
2023-02-11T09:09:17.005Z,-2.91
2023-02-11T09:11:44.771Z,-2.95
2023-02-11T09:14:16.537Z,-2.94
2023-02-11T09:16:43.267Z,-2.82
2023-02-11T09:19:10.469Z,-2.70
2023-02-11T09:21:37.009Z,-2.78
2023-02-11T09:24:05.151Z,-2.80
2023-02-11T09:26:34.229Z,-2.77
2023-02-11T09:29:01.077Z,-2.71
2023-02-11T09:31:29.179Z,-2.54
2023-02-11T09:33:58.729Z,-2.64
2023-02-11T09:36:26.865Z,-2.63
2023-02-11T09:38:53.496Z,-2.62
2023-02-11T09:41:23.005Z,-2.49
2023-02-11T09:43:57.206Z,-2.41
2023-02-11T09:46:25.888Z,-2.46
2023-02-11T09:48:53.924Z,-2.42
2023-02-11T09:51:33.189Z,-2.37
2023-02-11T09:54:05.540Z,-2.20
2023-02-11T09:56:32.265Z,-2.30
2023-02-11T09:58:58.819Z,-2.29
2023-02-11T10:01:36.070Z,-2.23
2023-02-11T10:04:05.848Z,-2.01
2023-02-11T10:06:40.890Z,-2.09
2023-02-11T10:09:17.449Z,-2.14
2023-02-11T10:11:46.837Z,-2.11
2023-02-11T10:14:17.884Z,-2.06
2023-02-11T10:16:47.496Z,-1.87
2023-02-11T10:19:20.084Z,-1.90
2023-02-11T10:22:04.606Z,-1.91
2023-02-11T10:24:32.137Z,-1.73
2023-02-11T10:27:00.479Z,-1.79
2023-02-11T10:29:32.845Z,-1.81
2023-02-11T10:32:00.730Z,-1.66
2023-02-11T10:34:27.293Z,-1.56
2023-02-11T10:36:53.822Z,-1.62
2023-02-11T10:39:21.925Z,-1.66
2023-02-11T10:41:54.316Z,-1.52
2023-02-11T10:44:28.290Z,-1.50
2023-02-11T10:46:56.009Z,-1.57
2023-02-11T10:49:41.796Z,-1.40
2023-02-11T10:52:18.258Z,-1.46
2023-02-11T10:55:00.080Z,-1.50
2023-02-11T10:57:29.152Z,-1.28
2023-02-11T10:59:59.518Z,-1.35
2023-02-11T11:02:34.520Z,-1.40
2023-02-11T11:05:03.898Z,-1.24
2023-02-11T11:07:31.494Z,-1.22
2023-02-11T11:10:00.446Z,-1.26
2023-02-11T11:12:32.066Z,-1.18
2023-02-11T11:15:00.921Z,-1.11
2023-02-11T11:17:30.605Z,-1.21
2023-02-11T11:20:20.510Z,-1.21
2023-02-11T11:22:48.439Z,-1.05
2023-02-11T11:25:29.484Z,-1.06
2023-02-11T11:27:57.483Z,-1.12
2023-02-11T11:30:27.567Z,-0.93
2023-02-11T11:32:54.269Z,-0.94
2023-02-11T11:35:23.801Z,-0.99
2023-02-11T11:37:55.263Z,-0.97
2023-02-11T11:40:24.850Z,-0.75
2023-02-11T11:43:06.328Z,-0.85
2023-02-11T11:45:32.915Z,-0.91
2023-02-11T11:48:11.658Z,-0.73
2023-02-11T11:50:45.862Z,-0.77
2023-02-11T11:53:13.497Z,-0.81
2023-02-11T11:55:42.454Z,-0.67
2023-02-11T11:58:18.022Z,-0.74
2023-02-11T12:00:44.441Z,-0.85
2023-02-11T12:03:11.055Z,-0.68
2023-02-11T12:05:42.184Z,-0.56
2023-02-11T12:08:08.609Z,-0.67
2023-02-11T12:10:38.115Z,-0.70
2023-02-11T12:13:21.357Z,-0.48
2023-02-11T12:16:07.170Z,-0.63
2023-02-11T12:18:49.033Z,-0.82
2023-02-11T12:21:21.535Z,-0.62
2023-02-11T12:23:53.915Z,-0.67
2023-02-11T12:26:28.377Z,-0.78
2023-02-11T12:29:13.192Z,-0.58
2023-02-11T12:31:44.273Z,-0.64
2023-02-11T12:34:13.630Z,-0.76
2023-02-11T12:36:41.206Z,-0.51
2023-02-11T12:39:16.966Z,-0.56
2023-02-11T12:42:22.033Z,-0.61
2023-02-11T12:44:55.906Z,-0.38
2023-02-11T12:47:25.331Z,-0.59
2023-02-11T12:50:07.301Z,-0.62
2023-02-11T12:52:40.962Z,-0.37
2023-02-11T12:55:11.876Z,-0.44
2023-02-11T12:57:41.510Z,-0.63
2023-02-11T13:00:18.934Z,-0.42
2023-02-11T13:03:06.106Z,-0.44
2023-02-11T13:05:37.531Z,-0.57
2023-02-11T13:08:22.784Z,-0.37
2023-02-11T13:11:02.656Z,-0.42
2023-02-11T13:13:37.096Z,-0.48
2023-02-11T13:16:08.776Z,-0.33
2023-02-11T13:18:50.817Z,-0.37
2023-02-11T13:21:36.214Z,-0.50
2023-02-11T13:24:18.603Z,-0.32
2023-02-11T13:27:02.198Z,-0.41
2023-02-11T13:29:44.801Z,-0.59
2023-02-11T13:32:12.836Z,-0.40
2023-02-11T13:34:42.385Z,-0.51
2023-02-11T13:37:24.114Z,-0.66
2023-02-11T13:40:07.774Z,-0.56
2023-02-11T13:42:47.161Z,-0.47
2023-02-11T13:45:17.429Z,-0.60
2023-02-11T13:47:44.046Z,-0.57
2023-02-11T13:50:21.561Z,-0.43
2023-02-11T13:52:49.190Z,-0.67
2023-02-11T13:55:15.632Z,-0.70
2023-02-11T13:57:43.636Z,-0.54
2023-02-11T14:00:28.692Z,-0.74
2023-02-11T14:03:34.342Z,-0.99
2023-02-11T14:06:28.853Z,-0.65
2023-02-11T14:09:07.762Z,-0.91
2023-02-11T14:11:36.387Z,-0.93
2023-02-11T14:14:25.147Z,-0.77
2023-02-11T14:16:54.665Z,-0.95
2023-02-11T14:19:36.987Z,-0.97
2023-02-11T14:22:05.225Z,-0.84
2023-02-11T14:24:35.343Z,-0.84
2023-02-11T14:27:06.782Z,-1.08
2023-02-11T14:29:34.524Z,-1.31
2023-02-11T14:32:05.928Z,-1.07
2023-02-11T14:34:44.604Z,-1.19
2023-02-11T14:37:11.041Z,-1.34
2023-02-11T14:39:43.674Z,-1.13
2023-02-11T14:42:17.305Z,-1.20
2023-02-11T14:44:45.082Z,-1.33
2023-02-11T14:47:21.228Z,-1.29
2023-02-11T14:49:49.756Z,-1.13
2023-02-11T14:52:22.671Z,-1.31
2023-02-11T14:54:50.265Z,-1.44
2023-02-11T14:57:18.450Z,-1.48
2023-02-11T14:59:55.449Z,-1.36
2023-02-11T15:02:23.452Z,-1.36
2023-02-11T15:04:49.969Z,-1.45
2023-02-11T15:07:17.456Z,-1.52
2023-02-11T15:09:50.184Z,-1.38
2023-02-11T15:12:21.117Z,-1.75
2023-02-11T15:14:49.522Z,-1.92
2023-02-11T15:17:18.448Z,-2.10
2023-02-11T15:19:48.257Z,-1.88
2023-02-11T15:22:20.343Z,-1.81
2023-02-11T15:24:58.619Z,-1.94
2023-02-11T15:27:25.856Z,-1.95
2023-02-11T15:29:53.809Z,-1.86
2023-02-11T15:32:22.223Z,-2.12
2023-02-11T15:34:49.703Z,-2.25
2023-02-11T15:37:24.478Z,-2.23
2023-02-11T15:39:51.947Z,-2.01
2023-02-11T15:42:19.766Z,-2.16
2023-02-11T15:44:49.177Z,-2.22
2023-02-11T15:47:22.504Z,-2.32
2023-02-11T15:49:49.373Z,-2.38
2023-02-11T15:52:25.099Z,-2.27
2023-02-11T15:54:52.332Z,-2.68
2023-02-11T15:57:20.206Z,-2.89
2023-02-11T15:59:50.745Z,-2.75
2023-02-11T16:02:21.945Z,-2.78
2023-02-11T16:04:53.686Z,-3.10
2023-02-11T16:07:42.064Z,-3.14
2023-02-11T16:10:23.065Z,-3.39
2023-02-11T16:13:03.030Z,-3.37
2023-02-11T16:15:29.646Z,-3.48
2023-02-11T16:17:56.508Z,-3.42
2023-02-11T16:20:22.960Z,-3.41
2023-02-11T16:22:49.550Z,-3.59
2023-02-11T16:25:19.040Z,-3.81
2023-02-11T16:27:48.685Z,-3.58
2023-02-11T16:30:28.039Z,-3.57
2023-02-11T16:32:54.865Z,-3.42
2023-02-11T16:35:21.597Z,-3.57
2023-02-11T16:37:48.084Z,-4.03
2023-02-11T16:40:14.628Z,-4.23
2023-02-11T16:42:41.141Z,-4.31
2023-02-11T16:45:07.865Z,-4.24
2023-02-11T16:47:35.465Z,-4.12
2023-02-11T16:50:02.662Z,-4.27
2023-02-11T16:52:31.477Z,-4.78
2023-02-11T16:54:59.921Z,-5.03
2023-02-11T16:57:29.596Z,-5.12
2023-02-11T16:59:58.010Z,-5.11
2023-02-11T17:02:26.601Z,-5.04
2023-02-11T17:04:54.013Z,-4.81
2023-02-11T17:07:20.502Z,-4.84
2023-02-11T17:09:47.003Z,-4.63
2023-02-11T17:12:14.930Z,-4.53
2023-02-11T17:14:42.597Z,-4.42
2023-02-11T17:17:11.265Z,-4.31
2023-02-11T17:19:37.780Z,-4.38
2023-02-11T17:22:04.725Z,-4.82
2023-02-11T17:24:32.864Z,-4.42
2023-02-11T17:26:59.361Z,-4.16
2023-02-11T17:29:26.219Z,-4.02
2023-02-11T17:31:54.458Z,-5.01
2023-02-11T17:34:23.046Z,-5.67
2023-02-11T17:36:49.664Z,-5.96
2023-02-11T17:39:16.201Z,-5.90
2023-02-11T17:41:42.679Z,-6.05
2023-02-11T17:44:10.689Z,-5.92
2023-02-11T17:46:37.139Z,-5.85
2023-02-11T17:49:03.778Z,-5.96
2023-02-11T17:51:32.078Z,-5.93
2023-02-11T17:53:59.822Z,-5.50
2023-02-11T17:56:26.616Z,-5.90
2023-02-11T17:58:53.236Z,-6.16
2023-02-11T18:01:20.425Z,-6.41
2023-02-11T18:03:46.994Z,-6.49
2023-02-11T18:06:14.544Z,-6.54
2023-02-11T18:08:43.108Z,-6.46
2023-02-11T18:11:10.541Z,-6.36
2023-02-11T18:13:38.358Z,-6.35
2023-02-11T18:16:06.094Z,-6.19
2023-02-11T18:18:32.781Z,-6.02
2023-02-11T18:20:59.946Z,-5.65
2023-02-11T18:23:27.702Z,-6.55
2023-02-11T18:25:55.320Z,-6.90
2023-02-11T18:28:21.909Z,-7.10
2023-02-11T18:30:49.625Z,-7.21
2023-02-11T18:33:16.193Z,-7.15
2023-02-11T18:35:42.952Z,-7.13
2023-02-11T18:38:11.522Z,-6.98
2023-02-11T18:40:41.406Z,-6.75
2023-02-11T18:43:07.891Z,-6.34
2023-02-11T18:45:34.566Z,-6.52
2023-02-11T18:48:03.638Z,-6.80
2023-02-11T18:50:31.358Z,-6.94
2023-02-11T18:52:57.825Z,-7.09
2023-02-11T18:55:25.516Z,-7.25
2023-02-11T18:57:54.261Z,-7.41
2023-02-11T19:00:21.105Z,-7.42
2023-02-11T19:02:47.607Z,-7.15
2023-02-11T19:05:14.273Z,-7.17
2023-02-11T19:07:41.090Z,-7.12
2023-02-11T19:10:08.203Z,-6.66
2023-02-11T19:12:34.960Z,-6.78
2023-02-11T19:15:02.709Z,-6.84
2023-02-11T19:17:29.146Z,-7.23
2023-02-11T19:19:55.645Z,-7.43
2023-02-11T19:22:22.586Z,-7.29
2023-02-11T19:24:49.561Z,-7.20
2023-02-11T19:27:17.167Z,-7.16
2023-02-11T19:29:43.630Z,-7.24
2023-02-11T19:32:10.219Z,-6.93
2023-02-11T19:34:41.404Z,-6.70
2023-02-11T19:37:08.489Z,-6.53
2023-02-11T19:39:35.030Z,-6.39
2023-02-11T19:42:01.645Z,-6.41
2023-02-11T19:44:28.189Z,-6.64
2023-02-11T19:46:56.119Z,-6.56
2023-02-11T19:49:26.374Z,-6.31
2023-02-11T19:51:53.541Z,-6.56
2023-02-11T19:54:20.359Z,-6.73
2023-02-11T19:56:47.449Z,-6.67
2023-02-11T19:59:14.437Z,-6.70
2023-02-11T20:01:41.417Z,-6.56
2023-02-11T20:04:08.216Z,-6.75
2023-02-11T20:06:35.489Z,-7.37
2023-02-11T20:09:04.105Z,-7.42
2023-02-11T20:11:31.423Z,-6.84
2023-02-11T20:13:59.615Z,-6.67
2023-02-11T20:16:44.578Z,-7.14
2023-02-11T20:19:17.797Z,-7.19
2023-02-11T20:21:47.046Z,-7.30
2023-02-11T20:24:13.996Z,-7.29
2023-02-11T20:26:42.426Z,-7.43
2023-02-11T20:29:10.174Z,-7.13
2023-02-11T20:31:36.880Z,-6.77
2023-02-11T20:34:04.823Z,-6.66
2023-02-11T20:36:32.757Z,-6.41
2023-02-11T20:39:01.668Z,-6.24
2023-02-11T20:41:30.999Z,-6.20
2023-02-11T20:43:58.550Z,-6.04
2023-02-11T20:46:26.362Z,-5.91
2023-02-11T20:48:54.213Z,-5.83
2023-02-11T20:51:23.272Z,-5.92
2023-02-11T20:53:51.255Z,-5.95
2023-02-11T20:56:24.924Z,-5.92
2023-02-11T20:58:51.673Z,-5.80
2023-02-11T21:01:20.063Z,-5.71
2023-02-11T21:03:54.582Z,-5.58
2023-02-11T21:06:23.035Z,-5.50
2023-02-11T21:08:49.532Z,-5.52
2023-02-11T21:11:17.655Z,-5.59
2023-02-11T21:13:44.205Z,-5.56
2023-02-11T21:16:14.964Z,-5.51
2023-02-11T21:18:41.675Z,-5.54
2023-02-11T21:21:08.228Z,-5.59
2023-02-11T21:23:35.801Z,-5.58
2023-02-11T21:26:04.179Z,-5.51
2023-02-11T21:28:31.940Z,-5.44
2023-02-11T21:30:58.783Z,-5.33
2023-02-11T21:33:27.529Z,-5.31
2023-02-11T21:35:58.219Z,-5.38
2023-02-11T21:38:26.619Z,-5.37
2023-02-11T21:40:53.134Z,-5.29
2023-02-11T21:43:19.774Z,-5.24
2023-02-11T21:45:47.082Z,-5.13
2023-02-11T21:48:13.889Z,-5.01
2023-02-11T21:50:42.527Z,-4.95
2023-02-11T21:53:09.425Z,-4.98
2023-02-11T21:55:36.670Z,-5.06
2023-02-11T21:58:03.290Z,-5.16
2023-02-11T22:00:30.163Z,-5.22
2023-02-11T22:02:56.738Z,-5.25
2023-02-11T22:05:23.280Z,-5.20
2023-02-11T22:07:49.846Z,-5.25
2023-02-11T22:10:16.530Z,-5.33
2023-02-11T22:12:43.013Z,-5.38
2023-02-11T22:15:09.653Z,-5.40
2023-02-11T22:17:36.229Z,-5.36
2023-02-11T22:20:02.939Z,-5.29
2023-02-11T22:22:30.098Z,-5.31
2023-02-11T22:24:57.121Z,-5.33
2023-02-11T22:27:23.562Z,-5.42
2023-02-11T22:29:51.381Z,-5.36
2023-02-11T22:32:19.074Z,-5.33
2023-02-11T22:34:45.526Z,-5.29
2023-02-11T22:37:12.110Z,-5.13
2023-02-11T22:39:38.725Z,-5.04
2023-02-11T22:42:05.230Z,-5.13
2023-02-11T22:44:31.804Z,-5.23
2023-02-11T22:46:58.259Z,-5.24
2023-02-11T22:49:25.139Z,-5.18
2023-02-11T22:51:51.638Z,-5.14
2023-02-11T22:54:19.257Z,-5.27
2023-02-11T22:56:49.412Z,-5.24
2023-02-11T22:59:16.421Z,-5.19
2023-02-11T23:01:44.498Z,-5.05
2023-02-11T23:04:12.333Z,-5.04
2023-02-11T23:06:40.656Z,-5.03
2023-02-11T23:09:08.274Z,-5.18
2023-02-11T23:11:34.954Z,-5.30
2023-02-11T23:14:03.277Z,-5.32
2023-02-11T23:16:31.446Z,-5.26
2023-02-11T23:19:02.330Z,-5.13
2023-02-11T23:21:30.374Z,-5.07
2023-02-11T23:24:02.281Z,-5.08
2023-02-11T23:26:28.857Z,-5.03
2023-02-11T23:28:56.010Z,-4.93
2023-02-11T23:31:23.861Z,-4.84
2023-02-11T23:33:50.947Z,-4.78
2023-02-11T23:36:18.182Z,-4.84
2023-02-11T23:38:46.157Z,-5.05
2023-02-11T23:41:13.475Z,-5.12
2023-02-11T23:43:41.330Z,-5.17
2023-02-11T23:46:08.106Z,-5.16
2023-02-11T23:48:36.613Z,-5.14
2023-02-11T23:51:03.373Z,-5.06
2023-02-11T23:53:29.866Z,-4.97
2023-02-11T23:55:56.559Z,-4.95
2023-02-11T23:58:24.319Z,-5.08
